• Join FlightAware (Why Join?)
  • Login
  • US Flag 
08:30AM EST


 

Airport Tracker/Info


-or-


 

Live Flight TrackerFlight Track Log ✈ AVN11 ✈ 09-Jan-2014 ✈ YSSY / SYD - NVVV / VLI

Flight Track Log - Related Links

Times and Time Zones

All times are in EST time to prevent confusion due to time zone crossing. See the AVN11 flight status page for this flight to view local times or setup timezone preferences in your user account.

Time Position Orientation Groundspeed Altitude Reporting Facility
EST Latitude Longitude Course Direction KTS MPH feet Rate Location/Type
08:04PM -33.9598 151.1910 22° Northeast 135 155  Level FlightAware ADS-B (YRPA)
08:04PM -33.9452 151.1870 347° North 167 192 100 1,080 Climbing FlightAware ADS-B (YRPA)
08:04PM -33.9399 151.1856 347° North 165 190 500 3,000 Climbing FlightAware ADS-B
08:05PM -33.9361 151.1854 357° North 161 185 700 2,280 Climbing FlightAware ADS-B (YRAY)
08:05PM -33.9308 151.1872 16° North 156 180 1,000 1,980 Climbing FlightAware ADS-B (YRPA)
08:05PM -33.9262 151.1917 40° Northeast 164 189 1,200 1,500 Climbing FlightAware ADS-B (YWST)
08:05PM -33.9246 151.1949 59° Northeast 169 194 1,300 1,500 Climbing FlightAware ADS-B (YRAY)
08:05PM -33.9232 151.2021 76° East 179 206 1,500 1,380 Climbing FlightAware ADS-B (YRPA)
08:05PM -33.9235 151.2068 94° East 186 214 1,600 480 Climbing FlightAware ADS-B (YRAY)
08:05PM -33.9258 151.2148 110° East 197 227 1,600 1,260 Level FlightAware ADS-B (YRAY)
08:05PM -33.9329 151.2306 118° Southeast 217 250 2,100 1,800 Climbing FlightAware ADS-B (YRAY)
08:06PM -33.9358 151.2393 112° Southeast 219 252 2,300 1,800 Climbing FlightAware ADS-B (YRAY)
08:06PM -33.9370 151.2459 102° East 225 259 2,500 2,280 Climbing FlightAware ADS-B (YRPA)
08:06PM -33.9375 151.2553 93° East 229 264 2,800 2,160 Climbing FlightAware ADS-B (YRAY)
08:06PM -33.9370 151.2711 88° East 244 281 3,200 1,260 Climbing FlightAware ADS-B
08:06PM -33.9364 151.2944 88° East 269 310 3,400 1,080 Climbing FlightAware ADS-B (YRAY)
08:07PM -33.9360 151.3143 88° East 290 334 3,800 1,920 Climbing FlightAware ADS-B (YRAY)
08:07PM -33.9352 151.3487 88° East 297 342 4,500 1,440 Climbing FlightAware ADS-B (YRAY)
08:07PM -33.9345 151.3802 88° East 306 352 4,700 540 Climbing FlightAware ADS-B
08:08PM -33.9333 151.4209 88° East 323 372 4,900 1,860 Climbing FlightAware ADS-B (YRPA)
08:08PM -33.9320 151.4535 87° East 322 371 6,000 3,840 Climbing FlightAware ADS-B
08:08PM -33.9310 151.4810 87° East 322 371 7,100 2,880 Climbing FlightAware ADS-B
08:08PM -33.9298 151.5058 87° East 325 374 7,500 1,200 Climbing FlightAware ADS-B (YWST)
08:09PM -33.9276 151.5437 86° East 322 371 7,800 1,200 Climbing FlightAware ADS-B (YRAY)
08:09PM -33.9298 151.5058 266° West 356 410 8,100 2,100 Climbing FlightAware ADS-B
08:09PM -33.9066 151.5924 72° East 363 418 8,800 2,400 Climbing FlightAware ADS-B
08:10PM -33.8745 151.6387 50° Northeast 377 434 10,000 2,940 Climbing FlightAware ADS-B (YWST)
08:10PM -33.8304 151.7032 51° Northeast 373 429 11,800 2,760 Climbing FlightAware ADS-B (YPLB)
08:11PM -33.8088 151.7349 51° Northeast 375 432 12,900 2,760 Climbing FlightAware ADS-B (YWST)
08:11PM -33.7849 151.7701 51° Northeast 380 437 13,700 2,160 Climbing FlightAware ADS-B (YPLB)
08:11PM -33.7502 151.8209 51° Northeast 397 457 14,700 1,980 Climbing FlightAware ADS-B (YWST)
08:12PM -33.7104 151.8789 50° Northeast 408 470 16,100 2,460 Climbing FlightAware ADS-B (YWST)
08:13PM -33.6654 151.9451 51° Northeast 414 476 17,700 2,760 Climbing FlightAware ADS-B (YWST)
08:13PM -33.6439 151.9766 51° Northeast 417 480 18,300 3,000 Climbing FlightAware ADS-B (YPLB)
08:13PM -33.6173 152.0156 51° Northeast 422 486 19,200 2,040 Climbing FlightAware ADS-B (YPLB)
08:14PM -33.6285 151.9993 231° Southwest 424 488 20,100 1,800 Climbing FlightAware ADS-B (YWST)
08:14PM -33.5471 152.1185 51° Northeast 429 494 21,200 2,160 Climbing FlightAware ADS-B (YRAY)
08:15PM -33.5075 152.1766 51° Northeast 436 502 22,500 2,280 Climbing Aus ATC (RADAR)
08:15PM -33.4924 152.1982 51° Northeast 442 509 22,500 1,680 Level FlightAware ADS-B (YPLB)
08:16PM -33.4369 152.2789 51° Northeast 449 517 23,800 1,680 Climbing FlightAware ADS-B (YPLB)
08:16PM -33.3883 152.3498 51° Northeast 456 525 24,800 1,500 Climbing FlightAware ADS-B (YPLB)
08:17PM -33.3318 152.4321 51° Northeast 466 536 25,800 1,260 Climbing FlightAware ADS-B (YPLB)
08:18PM -33.2767 152.5117 50° Northeast 477 549 26,600 960 Climbing FlightAware ADS-B (YPLB)
08:18PM -33.2338 152.5733 50° Northeast 484 557 27,100 1,020 Climbing FlightAware ADS-B (YRPA)
08:19PM -33.1755 152.6570 50° Northeast 484 557 28,000 1,680 Climbing FlightAware ADS-B (YRPA)
08:20PM -33.1031 152.7611 50° Northeast 486 559 29,400 1,800 Climbing FlightAware ADS-B (YPLB)
08:20PM -33.0461 152.8431 50° Northeast 483 556 30,500 1,680 Climbing FlightAware ADS-B (YPLB)
08:21PM -33.0149 152.8876 50° Northeast 482 555 31,400 1,740 Climbing Aus ATC (RADAR)
08:21PM -32.9884 152.9258 50° Northeast 479 551 31,700 1,560 Climbing FlightAware ADS-B (YPLB)
08:22PM -32.9300 153.0091 50° Northeast 472 543 32,800 1,740 Climbing FlightAware ADS-B (YPLB)
08:22PM -32.8999 153.0518 50° Northeast 462 532 33,800 1,740 Climbing Aus ATC (RADAR)
08:22PM -32.8728 153.0905 50° Northeast 465 535 34,000 1,140 Climbing FlightAware ADS-B (YPLB)
08:23PM -32.8178 153.1693 50° Northeast 464 534 34,800 1,320 Climbing FlightAware ADS-B (YPLB)
08:23PM -32.8247 153.1597 50° Northeast 455 524 35,000 900 Climbing Aus ATC (RADAR)
08:24PM -32.7635 153.2465 50° Northeast 467 537 35,400 600 Climbing FlightAware ADS-B (YPLB)
08:24PM -32.7326 153.2900 50° Northeast 463 533 35,700 720 Climbing FlightAware ADS-B (YRPA)
08:24PM -32.7198 153.3079 50° Northeast 464 534 35,900 1,200 Climbing FlightAware ADS-B (YRPA)
08:25PM -32.6792 153.3654 50° Northeast 458 527 36,500 720 Climbing Aus ATC (RADAR)
08:25PM -32.6529 153.4025 50° Northeast 474 545 36,400 480 Descending FlightAware ADS-B (YPLB)
08:26PM -32.6107 153.4620 50° Northeast 478 550 36,900 420 Climbing Aus ATC (RADAR)
08:26PM -32.5957 153.4831 50° Northeast 480 552 36,700 120 Descending FlightAware ADS-B (YPLB)
08:26PM -32.5367 153.5659 50° Northeast 486 559 37,000 360 Climbing FlightAware ADS-B (YPLB)
08:26PM -32.5381 153.5640 229° Southwest 481 554 37,000  Level FlightAware ADS-B (YRPA)
08:27PM -32.4797 153.6457 50° Northeast 486 559 37,000  Level FlightAware ADS-B (YPLB)
08:28PM -32.4189 153.7306 50° Northeast 487 560 37,000  Level FlightAware ADS-B (YPLB)
08:28PM -32.4173 153.7328 50° Northeast 482 555 37,000  Level FlightAware ADS-B (YRPA)
08:28PM -32.3615 153.8108 50° Northeast 486 559 37,000 180 Level FlightAware ADS-B (YPLB)
08:29PM -32.3286 153.8564 50° Northeast 486 559 37,200  Climbing Aus ATC (RADAR)
08:29PM -32.3144 153.8765 50° Northeast 482 555 37,000 -240 Descending FlightAware ADS-B (YRPA)
08:30PM -32.2428 153.9761 50° Northeast 484 557 37,000  Level FlightAware ADS-B (YPLB)
08:30PM -32.1849 154.0564 50° Northeast 484 557 37,000  Level FlightAware ADS-B (YPLB)
08:31PM -32.1262 154.1379 50° Northeast 483 556 37,000  Level FlightAware ADS-B (YPLB)
08:32PM -32.0697 154.2160 50° Northeast 484 557 37,000  Level FlightAware ADS-B (YPLB)
08:32PM -32.0115 154.2963 49° Northeast 483 556 37,000  Level FlightAware ADS-B (YPLB)
08:33PM -31.9524 154.3777 49° Northeast 481 554 37,000  Level FlightAware ADS-B (YPLB)
08:34PM -31.8953 154.4560 49° Northeast 480 552 37,000  Level FlightAware ADS-B (YPLB)
08:34PM -31.8380 154.5345 49° Northeast 479 551 37,000  Level FlightAware ADS-B (YPLB)
08:35PM -31.7522 154.6512 49° Northeast 477 549 37,000 120 Level FlightAware ADS-B (YPLB)
08:36PM -31.7035 154.7180 49° Northeast 478 550 37,200 420 Climbing FlightAware ADS-B (YPLB)
08:36PM -31.7073 154.7127 49° Northeast 476 548 37,300 660 Climbing Aus ATC (RADAR)
08:37PM -31.6496 154.7917 49° Northeast 481 554 37,700 240 Climbing Aus ATC (RADAR)
08:37PM -31.6324 154.8149 49° Northeast 486 559 37,500 240 Descending FlightAware ADS-B (YPLB)
08:37PM -31.5754 154.8921 49° Northeast 488 562 37,900 300 Climbing FlightAware ADS-B (YPLB)
08:39PM -31.4186 155.1053 49° Northeast 473 544 38,300  Climbing Aus ATC (RADAR)
08:40PM -31.3671 155.1745 49° Northeast 500 575 38,000  Descending FlightAware ADS-B (YPLB)
08:40PM -31.3296 155.2256 49° Northeast 500 575 38,300  Climbing Aus ATC (RADAR)
08:41PM -31.2752 155.2983 49° Northeast 500 575 38,000  Descending FlightAware ADS-B (YPLB)
08:41PM -31.2136 155.3810 49° Northeast 483 556 38,300 180 Climbing Aus ATC (RADAR)
08:42PM -31.1618 155.4493 48° Northeast 500 575 38,300  Level Aus ATC (RADAR)
08:44PM -30.9871 155.6818 49° Northeast 495 570 38,300  Level Aus ATC (RADAR)
08:45PM -30.9115 155.7821 49° Northeast 494 568 38,300 -120 Level Aus ATC (RADAR)
08:45PM -30.8797 155.8246 49° Northeast 475 547 38,200  Descending Aus ATC (RADAR)
08:46PM -30.8271 155.8944 49° Northeast 474 545 38,300 60 Climbing Aus ATC (RADAR)
08:46PM -30.7611 155.9812 49° Northeast 491 565 38,300  Level Aus ATC (RADAR)
08:47PM -30.7086 156.0510 49° Northeast 491 565 38,300 -120 Level Aus ATC (RADAR)
08:48PM -30.6262 156.1598 49° Northeast 489 563 38,200  Descending Aus ATC (RADAR)
08:49PM -30.5439 156.2682 49° Northeast 489 563 38,300  Climbing Aus ATC (RADAR)
08:49PM -30.4838 156.3471 49° Northeast 489 563 38,200 -120 Descending Aus ATC (RADAR)
08:50PM -30.4535 156.3869 49° Northeast 490 564 38,200 120 Level Aus ATC (RADAR)
08:50PM -30.4084 156.4462 49° Northeast 490 564 38,300 60 Climbing Aus ATC (RADAR)
08:51PM -30.3328 156.5448 48° Northeast 491 565 38,300  Level Aus ATC (RADAR)
08:52PM -30.2799 156.6140 48° Northeast 491 565 38,300  Level Aus ATC (RADAR)
08:52PM -30.2343 156.6734 48° Northeast 492 566 38,300  Level Aus ATC (RADAR)
08:53PM -30.1506 156.7827 48° Northeast 494 568 38,300  Level Aus ATC (RADAR)
08:55PM -29.9816 157.0007 48° Northeast 496 571 38,300  Level Aus ATC (RADAR)
08:55PM -29.9429 157.0505 48° Northeast 496 571 38,300  Level Aus ATC (RADAR)
08:56PM -29.8513 157.1692 48° Northeast 495 570 38,300  Level Aus ATC (RADAR)
08:57PM -29.8129 157.2187 48° Northeast 495 570 38,300  Level Aus ATC (RADAR)
08:58PM -29.7126 157.3476 48° Northeast 496 571 38,300  Level Aus ATC (RADAR)
08:58PM -29.6817 157.3870 48° Northeast 496 571 38,300  Level Aus ATC (RADAR)
09:00PM -29.5280 157.5833 48° Northeast 493 567 38,300  Level Aus ATC (RADAR)
09:00PM -29.4972 157.6224 48° Northeast 493 567 38,300  Level Aus ATC (RADAR)
09:01PM -29.4509 157.6809 48° Northeast 493 567 38,300  Level Aus ATC (RADAR)
09:02PM -29.3664 157.7880 48° Northeast 492 566 38,300  Level Aus ATC (RADAR)
09:02PM -29.3210 157.8456 48° Northeast 489 563 38,300  Level Aus ATC (RADAR)
09:03PM -29.2394 157.9509 48° Northeast 482 555 38,300  Level Aus ATC (RADAR)
09:03PM -29.2065 157.9899 46° Northeast 488 562 38,300  Level Aus ATC (RADAR)
09:05PM -29.0531 158.1731 46° Northeast 496 571 38,300  Level Aus ATC (RADAR)
09:05PM -29.0295 158.2008 46° Northeast 495 570 38,300  Level Aus ATC (RADAR)
09:08PM -28.7396 158.5666 48° Northeast 38,000 -120 Descending Aus ATC (Calculated)
09:10PM -28.5579 158.7942 48° Northeast 38,000  Level Aus ATC (Calculated)
09:12PM -28.4472 158.9323 48° Northeast  Level FlightAware Approximate
09:13PM -28.3619 159.0383 48° Northeast  Level FlightAware Approximate
09:14PM -28.2766 159.1441 48° Northeast  Level FlightAware Approximate
09:14PM -28.2280 159.1999 50° Northeast 38,000  Level Aus ATC (Calculated)
09:15PM -28.1912 159.2498 47° Northeast  Level FlightAware Approximate
09:16PM -28.3825 159.0340 223° Southwest  Level FlightAware Approximate
09:17PM -28.2908 159.1326 43° Northeast  Level FlightAware Approximate
09:18PM -28.1989 159.2311 43° Northeast  Level FlightAware Approximate
09:18PM -27.8277 159.6869 47° Northeast 38,000  Level Aus ATC (Calculated)
09:18PM -27.7839 159.7399 227° Southwest 38,000  Level Aus ATC (Calculated)
09:20PM -27.8748 159.6307 227° Southwest  Level FlightAware Approximate
09:21PM -27.7780 159.7225 47° Northeast  Level Estimated
09:21PM -27.5676 160.0004 47° Northeast 38,000  Level Aus ATC (Calculated)
09:23PM -27.4045 160.1957 47° Northeast  Level FlightAware Approximate
09:23PM -27.2877 160.3350 227° Southwest 38,000  Level Aus ATC (Calculated)
09:24PM -27.3178 160.2991 47° Northeast  Level FlightAware Approximate
09:24PM -27.2520 160.3775 47° Northeast 38,000  Level Aus ATC (Calculated)
09:26PM -27.1087 160.5476 47° Northeast  Level FlightAware Approximate
09:26PM -27.0059 160.6693 226° Southwest 38,000  Level Aus ATC (Calculated)
09:27PM -27.0218 160.6505 47° Northeast  Level FlightAware Approximate
09:27PM -26.9432 160.7433 46° Northeast 38,000  Level Aus ATC (Calculated)
09:28PM -26.8215 160.8866 46° Northeast 38,000  Level Aus ATC (Calculated)
09:29PM -26.7994 160.9126 46° Northeast  Level FlightAware Approximate
09:30PM -26.7169 161.0095 46° Northeast  Level FlightAware Approximate
09:30PM -26.6502 161.0875 46° Northeast 38,000  Level Aus ATC (Calculated)
09:31PM -26.6296 161.1117 46° Northeast  Level FlightAware Approximate
09:32PM -26.5454 161.2100 46° Northeast  Level FlightAware Approximate
09:32PM -26.5466 161.2086 46° Northeast 38,000  Level Aus ATC (Calculated)
09:33PM -26.4592 161.3106 46° Northeast  Level FlightAware Approximate
09:34PM -26.3717 161.4123 46° Northeast  Level FlightAware Approximate
09:34PM -26.3520 161.4352 46° Northeast 38,000  Level Aus ATC (Calculated)
09:35PM -26.2644 161.5367 46° Northeast  Level FlightAware Approximate
09:36PM -26.1767 161.6381 46° Northeast  Level FlightAware Approximate
09:37PM -26.0890 161.7394 46° Northeast  Level FlightAware Approximate
09:38PM -26.0012 161.8405 46° Northeast  Level FlightAware Approximate
09:39PM -25.9133 161.9415 46° Northeast  Level FlightAware Approximate
09:40PM -25.8254 162.0423 46° Northeast  Level FlightAware Approximate
09:41PM -25.7374 162.1429 46° Northeast  Level FlightAware Approximate
09:42PM -25.6493 162.2434 46° Northeast  Level FlightAware Approximate
09:43PM -25.5611 162.3438 46° Northeast  Level FlightAware Approximate
09:44PM -25.4729 162.4440 46° Northeast  Level FlightAware Approximate
09:44PM -25.3675 162.5635 46° Northeast 38,000  Level Aus ATC (Calculated)
09:45PM -25.2791 162.6634 46° Northeast  Level FlightAware Approximate
09:46PM -25.1907 162.7631 46° Northeast  Level FlightAware Approximate
09:47PM -25.1022 162.8627 46° Northeast  Level FlightAware Approximate
09:48PM -25.0136 162.9622 46° Northeast  Level FlightAware Approximate
09:49PM -24.9249 163.0615 45° Northeast  Level FlightAware Approximate
09:50PM -25.0136 162.9622 225° Southwest  Level FlightAware Approximate
09:51PM -24.9249 163.0615 45° Northeast  Level FlightAware Approximate
09:52PM -25.0136 162.9622 225° Southwest  Level FlightAware Approximate
09:53PM -24.9249 163.0615 45° Northeast  Level FlightAware Approximate
09:54PM -25.0136 162.9622 225° Southwest  Level FlightAware Approximate
09:55PM -24.9249 163.0615 45° Northeast  Level FlightAware Approximate
09:56PM -25.0136 162.9622 225° Southwest  Level FlightAware Approximate
09:57PM -24.9249 163.0615 45° Northeast  Level FlightAware Approximate
09:58PM -24.9787 163.0013 45° Northeast  Level FlightAware Approximate
09:59PM -24.8899 163.1004 45° Northeast  Level FlightAware Approximate
10:00PM -24.8011 163.1994 45° Northeast  Level FlightAware Approximate
10:01PM -24.7122 163.2982 45° Northeast  Level FlightAware Approximate
10:02PM -24.6232 163.3970 45° Northeast  Level FlightAware Approximate
10:03PM -24.5341 163.4955 45° Northeast  Level FlightAware Approximate
10:04PM -24.4450 163.5939 45° Northeast  Level FlightAware Approximate
10:05PM -24.3559 163.6922 45° Northeast  Level FlightAware Approximate
10:06PM -24.2666 163.7903 45° Northeast  Level FlightAware Approximate
10:07PM -24.1773 163.8884 45° Northeast  Level FlightAware Approximate
10:08PM -24.0880 163.9862 45° Northeast  Level FlightAware Approximate
10:09PM -23.9985 164.0840 45° Northeast  Level FlightAware Approximate
10:10PM -23.9091 164.1815 45° Northeast  Level FlightAware Approximate
10:11PM -23.8195 164.2790 45° Northeast  Level FlightAware Approximate
10:12PM -23.7299 164.3763 45° Northeast  Level FlightAware Approximate
10:13PM -23.6402 164.4735 45° Northeast  Level FlightAware Approximate
10:14PM -23.5505 164.5706 45° Northeast  Level FlightAware Approximate
10:15PM -23.4607 164.6675 45° Northeast  Level FlightAware Approximate
10:16PM -23.3709 164.7643 45° Northeast  Level FlightAware Approximate
10:17PM -23.2809 164.8609 45° Northeast  Level FlightAware Approximate
10:18PM -23.1910 164.9574 45° Northeast  Level FlightAware Approximate
10:19PM -23.1009 165.0538 45° Northeast  Level FlightAware Approximate
10:20PM -23.0108 165.1501 45° Northeast  Level FlightAware Approximate
10:21PM -22.9207 165.2462 44° Northeast  Level FlightAware Approximate
10:22PM -22.8304 165.3422 44° Northeast  Level FlightAware Approximate
10:23PM -22.7402 165.4380 44° Northeast  Level FlightAware Approximate
10:24PM -22.6498 165.5338 44° Northeast  Level FlightAware Approximate
10:25PM -22.5594 165.6294 44° Northeast  Level FlightAware Approximate
10:26PM -22.4690 165.7249 44° Northeast  Level FlightAware Approximate
10:27PM -22.3785 165.8203 44° Northeast  Level FlightAware Approximate
10:28PM -22.2879 165.9155 44° Northeast  Level FlightAware Approximate
10:29PM -22.1973 166.0106 44° Northeast  Level FlightAware Approximate
10:30PM -22.1066 166.1056 44° Northeast  Level FlightAware Approximate
10:31PM -22.0159 166.2005 44° Northeast  Level FlightAware Approximate
10:32PM -21.9034 166.2606 24° Northeast  Level FlightAware Approximate
10:33PM -21.7880 166.3159 24° Northeast  Level FlightAware Approximate
10:34PM -21.6726 166.3712 24° Northeast  Level FlightAware Approximate
10:35PM -21.5571 166.4263 24° Northeast  Level FlightAware Approximate
10:36PM -21.4416 166.4814 24° Northeast  Level FlightAware Approximate
10:37PM -21.3261 166.5363 24° Northeast  Level FlightAware Approximate
10:38PM -21.2106 166.5912 24° Northeast  Level FlightAware Approximate
10:39PM -21.0950 166.6460 24° Northeast  Level FlightAware Approximate
10:40PM -20.9795 166.7007 24° Northeast  Level FlightAware Approximate
10:41PM -20.8639 166.7554 24° Northeast  Level FlightAware Approximate
10:42PM -20.7483 166.8099 24° Northeast  Level FlightAware Approximate
10:43PM -20.6327 166.8644 24° Northeast  Level FlightAware Approximate
10:44PM -20.5171 166.9188 24° Northeast  Level FlightAware Approximate
10:45PM -20.4014 166.9731 24° Northeast  Level FlightAware Approximate
10:46PM -20.2858 167.0273 24° Northeast  Level FlightAware Approximate
10:47PM -20.1701 167.0814 24° Northeast  Level FlightAware Approximate
10:48PM -20.0544 167.1355 24° Northeast  Level FlightAware Approximate
10:49PM -19.9387 167.1895 24° Northeast  Level FlightAware Approximate
10:50PM -19.8230 167.2434 24° Northeast  Level FlightAware Approximate
10:51PM -19.7072 167.2972 24° Northeast  Level FlightAware Approximate
10:52PM -19.5914 167.3509 24° Northeast  Level FlightAware Approximate
10:53PM -19.4757 167.4047 24° Northeast  Level FlightAware Approximate
10:54PM -19.3601 167.4586 24° Northeast  Level FlightAware Approximate
10:55PM -19.2444 167.5125 24° Northeast  Level FlightAware Approximate
10:56PM -19.1287 167.5663 24° Northeast  Level FlightAware Approximate
10:57PM -19.0131 167.6201 24° Northeast  Level FlightAware Approximate
10:58PM -18.8974 167.6737 24° Northeast  Level FlightAware Approximate
10:59PM -18.7817 167.7273 24° Northeast  Level FlightAware Approximate
11:00PM -18.6659 167.7808 24° Northeast  Level FlightAware Approximate
11:01PM -18.5502 167.8343 24° Northeast  Level FlightAware Approximate
11:02PM -18.4345 167.8879 24° Northeast  Level FlightAware Approximate
11:03PM -18.3188 167.9414 24° Northeast  Level FlightAware Approximate
11:04PM -18.2031 167.9949 24° Northeast  Level FlightAware Approximate
11:05PM -18.0875 168.0483 24° Northeast  Level FlightAware Approximate
11:06PM -17.9717 168.1016 24° Northeast  Level FlightAware Approximate
11:07PM -17.8560 168.1549 24° Northeast  Level FlightAware Approximate
11:08PM -17.7403 168.2081 24° Northeast  Level FlightAware Approximate
11:09PM -17.6621 168.2439 24° Northeast  Level FlightAware Approximate
11:10PM -17.6993 168.3198 24° Northeast  Level Estimated
11:11PM -17.6993 168.3198 24° Northeast  Level Estimated
11:12PM -17.6993 168.3198 24° Northeast  Level Estimated
11:13PM -17.6993 168.3198 24° Northeast  Level Estimated
11:14PM -17.6993 168.3198 24° Northeast  Level Estimated
11:15PM -17.6993 168.3198 24° Northeast  Level Estimated
11:16PM -17.6993 168.3198 24° Northeast  Level Estimated
11:17PM -17.6993 168.3198 24° Northeast  Level Estimated